sensor_id;sensor_type;location;lat;lon;timestamp;pressure;altitude;pressure_sealevel;temperature;humidity
18784;BME280;9520;50.954;6.968;2023-03-23T00:00:14;99958.16;;;20.53;41.26
18784;BME280;9520;50.954;6.968;2023-03-23T00:00:35;99951.72;;;20.43;41.56
18784;BME280;9520;50.954;6.968;2023-03-23T00:00:56;99961.28;;;20.47;41.68
18784;BME280;9520;50.954;6.968;2023-03-23T00:01:19;99954.44;;;20.29;41.77
18784;BME280;9520;50.954;6.968;2023-03-23T00:01:41;99949.06;;;20.29;41.78
18784;BME280;9520;50.954;6.968;2023-03-23T00:02:01;99951.47;;;20.34;41.77
18784;BME280;9520;50.954;6.968;2023-03-23T00:02:23;99954.66;;;20.26;41.78
18784;BME280;9520;50.954;6.968;2023-03-23T00:02:45;99944.50;;;20.31;41.57
18784;BME280;9520;50.954;6.968;2023-03-23T00:03:06;99943.16;;;20.24;41.71
18784;BME280;9520;50.954;6.968;2023-03-23T00:03:28;99955.97;;;20.33;41.77
18784;BME280;9520;50.954;6.968;2023-03-23T00:03:50;99953.84;;;20.38;41.63
18784;BME280;9520;50.954;6.968;2023-03-23T00:04:11;99960.72;;;20.42;41.34
18784;BME280;9520;50.954;6.968;2023-03-23T00:04:33;99968.56;;;20.45;41.55
18784;BME280;9520;50.954;6.968;2023-03-23T00:04:55;99957.41;;;20.24;41.60
18784;BME280;9520;50.954;6.968;2023-03-23T00:05:16;99956.56;;;20.24;41.44
18784;BME280;9520;50.954;6.968;2023-03-23T00:05:38;99965.09;;;20.31;41.59
18784;BME280;9520;50.954;6.968;2023-03-23T00:06:01;99964.28;;;20.28;41.38
18784;BME280;9520;50.954;6.968;2023-03-23T00:06:27;99955.97;;;20.33;41.53
18784;BME280;9520;50.954;6.968;2023-03-23T00:06:48;99955.66;;;20.38;41.48
18784;BME280;9520;50.954;6.968;2023-03-23T00:07:09;99957.28;;;20.40;41.47
18784;BME280;9520;50.954;6.968;2023-03-23T00:07:33;99957.28;;;20.40;41.51
18784;BME280;9520;50.954;6.968;2023-03-23T00:07:53;99957.19;;;20.42;41.47
18784;BME280;9520;50.954;6.968;2023-03-23T00:08:16;99948.53;;;20.24;41.41
18784;BME280;9520;50.954;6.968;2023-03-23T00:08:38;99952.34;;;20.34;41.46
18784;BME280;9520;50.954;6.968;2023-03-23T00:09:05;99948.59;;;20.37;41.64
18784;BME280;9520;50.954;6.968;2023-03-23T00:09:27;99950.44;;;20.36;41.69
18784;BME280;9520;50.954;6.968;2023-03-23T00:09:47;99952.56;;;20.31;41.64
18784;BME280;9520;50.954;6.968;2023-03-23T00:10:13;99941.31;;;20.39;41.26
18784;BME280;9520;50.954;6.968;2023-03-23T00:10:34;99947.34;;;20.42;41.33
18784;BME280;9520;50.954;6.968;2023-03-23T00:10:55;99937.34;;;20.44;41.56
18784;BME280;9520;50.954;6.968;2023-03-23T00:11:20;99946.91;;;20.48;41.34
18784;BME280;9520;50.954;6.968;2023-03-23T00:11:41;99933.72;;;20.45;41.29
18784;BME280;9520;50.954;6.968;2023-03-23T00:12:02;99938.78;;;20.50;41.40
18784;BME280;9520;50.954;6.968;2023-03-23T00:12:28;99945.63;;;20.54;41.14
18784;BME280;9520;50.954;6.968;2023-03-23T00:12:49;99944.59;;;20.56;41.33
18784;BME280;9520;50.954;6.968;2023-03-23T00:13:10;99930.81;;;20.48;41.31
18784;BME280;9520;50.954;6.968;2023-03-23T00:13:31;99940.19;;;20.55;41.06
18784;BME280;9520;50.954;6.968;2023-03-23T00:13:53;99940.91;;;20.57;40.98
18784;BME280;9520;50.954;6.968;2023-03-23T00:14:14;99942.75;;;20.57;41.16
18784;BME280;9520;50.954;6.968;2023-03-23T00:14:35;99944.13;;;20.50;41.59
18784;BME280;9520;50.954;6.968;2023-03-23T00:15:03;99941.34;;;20.51;41.51
18784;BME280;9520;50.954;6.968;2023-03-23T00:15:24;99938.56;;;20.53;41.37
18784;BME280;9520;50.954;6.968;2023-03-23T00:15:46;99943.19;;;20.51;41.65
18784;BME280;9520;50.954;6.968;2023-03-23T00:16:09;99939.00;;;20.47;41.31
18784;BME280;9520;50.954;6.968;2023-03-23T00:16:37;99949.72;;;20.47;41.54
18784;BME280;9520;50.954;6.968;2023-03-23T00:17:00;99947.03;;;20.47;41.31
18784;BME280;9520;50.954;6.968;2023-03-23T00:17:22;99949.03;;;20.43;41.47
18784;BME280;9520;50.954;6.968;2023-03-23T00:17:43;99944.94;;;20.38;41.46
18784;BME280;9520;50.954;6.968;2023-03-23T00:18:04;99948.28;;;20.41;41.51
18784;BME280;9520;50.954;6.968;2023-03-23T00:18:25;99947.97;;;20.46;41.39
18784;BME280;9520;50.954;6.968;2023-03-23T00:18:48;99945.22;;;20.47;41.78
18784;BME280;9520;50.954;6.968;2023-03-23T00:19:12;99949.72;;;20.47;41.29
18784;BME280;9520;50.954;6.968;2023-03-23T00:19:33;99946.03;;;20.48;41.11
18784;BME280;9520;50.954;6.968;2023-03-23T00:19:54;99941.84;;;20.44;41.50
18784;BME280;9520;50.954;6.968;2023-03-23T00:20:17;99940.81;;;20.46;41.34
18784;BME280;9520;50.954;6.968;2023-03-23T00:20:38;99951.31;;;20.49;41.38
18784;BME280;9520;50.954;6.968;2023-03-23T00:21:00;99944.91;;;20.52;41.57
18784;BME280;9520;50.954;6.968;2023-03-23T00:21:21;99935.00;;;20.52;41.27
18784;BME280;9520;50.954;6.968;2023-03-23T00:21:45;99929.88;;;20.49;41.27
18784;BME280;9520;50.954;6.968;2023-03-23T00:22:07;99939.50;;;20.39;41.97
18784;BME280;9520;50.954;6.968;2023-03-23T00:22:28;99938.13;;;20.46;41.61
18784;BME280;9520;50.954;6.968;2023-03-23T00:22:49;99937.06;;;20.49;41.68
18784;BME280;9520;50.954;6.968;2023-03-23T00:23:09;99942.22;;;20.52;41.40
18784;BME280;9520;50.954;6.968;2023-03-23T00:23:30;99951.84;;;20.54;41.55
18784;BME280;9520;50.954;6.968;2023-03-23T00:23:52;99948.22;;;20.55;41.29
18784;BME280;9520;50.954;6.968;2023-03-23T00:24:14;99944.47;;;20.58;41.39
18784;BME280;9520;50.954;6.968;2023-03-23T00:24:36;99944.59;;;20.56;41.20
18784;BME280;9520;50.954;6.968;2023-03-23T00:24:57;99954.31;;;20.57;41.41
18784;BME280;9520;50.954;6.968;2023-03-23T00:25:18;99936.84;;;20.52;41.29
18784;BME280;9520;50.954;6.968;2023-03-23T00:25:39;99948.66;;;20.62;41.55
18784;BME280;9520;50.954;6.968;2023-03-23T00:25:59;99954.03;;;20.62;41.37
18784;BME280;9520;50.954;6.968;2023-03-23T00:26:20;99949.63;;;20.61;41.41
18784;BME280;9520;50.954;6.968;2023-03-23T00:26:43;99949.09;;;20.56;41.36
18784;BME280;9520;50.954;6.968;2023-03-23T00:27:05;99951.53;;;20.46;41.60
18784;BME280;9520;50.954;6.968;2023-03-23T00:27:25;99952.69;;;20.42;41.52
18784;BME280;9520;50.954;6.968;2023-03-23T00:27:46;99948.66;;;20.22;41.75
18784;BME280;9520;50.954;6.968;2023-03-23T00:28:07;99941.44;;;20.23;41.83
18784;BME280;9520;50.954;6.968;2023-03-23T00:28:28;99947.22;;;20.17;41.85
18784;BME280;9520;50.954;6.968;2023-03-23T00:28:49;99950.56;;;20.20;41.92
18784;BME280;9520;50.954;6.968;2023-03-23T00:29:13;99950.16;;;20.26;41.78
18784;BME280;9520;50.954;6.968;2023-03-23T00:29:35;99944.88;;;20.25;41.98
18784;BME280;9520;50.954;6.968;2023-03-23T00:29:56;99945.28;;;20.19;41.96
18784;BME280;9520;50.954;6.968;2023-03-23T00:30:17;99949.69;;;20.20;42.13
18784;BME280;9520;50.954;6.968;2023-03-23T00:30:38;99945.84;;;20.24;42.24
18784;BME280;9520;50.954;6.968;2023-03-23T00:31:04;99942.00;;;20.28;41.84
18784;BME280;9520;50.954;6.968;2023-03-23T00:31:28;99942.00;;;20.28;42.03
18784;BME280;9520;50.954;6.968;2023-03-23T00:31:52;99933.13;;;20.27;42.08
18784;BME280;9520;50.954;6.968;2023-03-23T00:32:13;99945.25;;;20.33;42.02
18784;BME280;9520;50.954;6.968;2023-03-23T00:32:38;99943.25;;;20.37;42.00
18784;BME280;9520;50.954;6.968;2023-03-23T00:32:59;99943.25;;;20.37;41.84
18784;BME280;9520;50.954;6.968;2023-03-23T00:33:19;99937.91;;;20.37;42.01
18784;BME280;9520;50.954;6.968;2023-03-23T00:33:40;99939.50;;;20.39;41.84
18784;BME280;9520;50.954;6.968;2023-03-23T00:34:04;99949.03;;;20.43;41.96
18784;BME280;9520;50.954;6.968;2023-03-23T00:34:25;99942.63;;;20.46;41.91
18784;BME280;9520;50.954;6.968;2023-03-23T00:34:53;99940.81;;;20.46;41.58
18784;BME280;9520;50.954;6.968;2023-03-23T00:35:14;99931.69;;;20.36;41.68
18784;BME280;9520;50.954;6.968;2023-03-23T00:35:35;99944.22;;;20.48;41.58
18784;BME280;9520;50.954;6.968;2023-03-23T00:35:56;99945.84;;;20.51;41.68
18784;BME280;9520;50.954;6.968;2023-03-23T00:36:17;99953.44;;;20.44;41.76
18784;BME280;9520;50.954;6.968;2023-03-23T00:36:38;99947.88;;;20.47;41.35
18784;BME280;9520;50.954;6.968;2023-03-23T00:37:06;99942.16;;;20.39;41.43
18784;BME280;9520;50.954;6.968;2023-03-23T00:37:28;99945.16;;;20.35;41.64
18784;BME280;9520;50.954;6.968;2023-03-23T00:37:49;99942.38;;;20.36;41.57
18784;BME280;9520;50.954;6.968;2023-03-23T00:38:10;99953.00;;;20.23;41.74
18784;BME280;9520;50.954;6.968;2023-03-23T00:38:31;99941.09;;;20.15;41.93
18784;BME280;9520;50.954;6.968;2023-03-23T00:38:53;99950.34;;;20.23;41.88
18784;BME280;9520;50.954;6.968;2023-03-23T00:39:14;99930.84;;;20.21;41.96
18784;BME280;9520;50.954;6.968;2023-03-23T00:39:37;99940.78;;;20.19;42.25
18784;BME280;9520;50.954;6.968;2023-03-23T00:39:58;99934.69;;;20.17;42.25
18784;BME280;9520;50.954;6.968;2023-03-23T00:40:21;99927.16;;;20.10;42.25
18784;BME280;9520;50.954;6.968;2023-03-23T00:40:43;99938.03;;;20.21;42.10
18784;BME280;9520;50.954;6.968;2023-03-23T00:41:04;99937.94;;;20.22;42.13
18784;BME280;9520;50.954;6.968;2023-03-23T00:41:26;99933.41;;;20.23;41.94
18784;BME280;9520;50.954;6.968;2023-03-23T00:41:47;99935.97;;;20.12;42.02
18784;BME280;9520;50.954;6.968;2023-03-23T00:42:08;99934.97;;;20.13;42.08
18784;BME280;9520;50.954;6.968;2023-03-23T00:42:29;99933.16;;;20.13;42.26
18784;BME280;9520;50.954;6.968;2023-03-23T00:42:50;99932.19;;;20.14;42.18
18784;BME280;9520;50.954;6.968;2023-03-23T00:43:10;99934.78;;;20.16;42.36
18784;BME280;9520;50.954;6.968;2023-03-23T00:43:34;99937.66;;;20.13;42.25
18784;BME280;9520;50.954;6.968;2023-03-23T00:43:57;99925.91;;;20.15;42.23
18784;BME280;9520;50.954;6.968;2023-03-23T00:44:20;99940.59;;;20.22;42.13
18784;BME280;9520;50.954;6.968;2023-03-23T00:44:43;99938.88;;;20.21;41.87
18784;BME280;9520;50.954;6.968;2023-03-23T00:45:05;99931.59;;;20.23;42.01
18784;BME280;9520;50.954;6.968;2023-03-23T00:45:31;99934.78;;;20.16;42.26
18784;BME280;9520;50.954;6.968;2023-03-23T00:45:52;99942.06;;;20.14;42.11
18784;BME280;9520;50.954;6.968;2023-03-23T00:46:12;99941.19;;;20.13;42.24
18784;BME280;9520;50.954;6.968;2023-03-23T00:46:34;99929.94;;;20.08;42.29
18784;BME280;9520;50.954;6.968;2023-03-23T00:46:56;99946.25;;;20.18;42.12
18784;BME280;9520;50.954;6.968;2023-03-23T00:47:20;99944.63;;;20.15;42.12
18784;BME280;9520;50.954;6.968;2023-03-23T00:47:43;99943.53;;;20.05;42.37
18784;BME280;9520;50.954;6.968;2023-03-23T00:48:06;99940.44;;;20.11;42.27
18784;BME280;9520;50.954;6.968;2023-03-23T00:48:28;99941.50;;;20.09;42.24
18784;BME280;9520;50.954;6.968;2023-03-23T00:48:53;99932.28;;;20.13;42.29
18784;BME280;9520;50.954;6.968;2023-03-23T00:49:17;99933.06;;;20.15;42.21
18784;BME280;9520;50.954;6.968;2023-03-23T00:49:38;99926.53;;;20.19;42.21
18784;BME280;9520;50.954;6.968;2023-03-23T00:49:59;99927.88;;;20.26;42.05
18784;BME280;9520;50.954;6.968;2023-03-23T00:50:20;99932.75;;;20.19;42.15
18784;BME280;9520;50.954;6.968;2023-03-23T00:50:41;99928.34;;;20.18;42.02
18784;BME280;9520;50.954;6.968;2023-03-23T00:51:03;99924.25;;;20.13;42.33
18784;BME280;9520;50.954;6.968;2023-03-23T00:51:26;99920.50;;;20.03;42.47
18784;BME280;9520;50.954;6.968;2023-03-23T00:51:47;99915.31;;;19.87;42.52
18784;BME280;9520;50.954;6.968;2023-03-23T00:52:09;99925.78;;;19.90;42.66
18784;BME280;9520;50.954;6.968;2023-03-23T00:52:31;99923.59;;;19.97;42.40
18784;BME280;9520;50.954;6.968;2023-03-23T00:52:52;99918.31;;;19.95;42.54
18784;BME280;9520;50.954;6.968;2023-03-23T00:53:16;99919.84;;;19.99;42.33
18784;BME280;9520;50.954;6.968;2023-03-23T00:53:38;99920.78;;;19.98;42.65
18784;BME280;9520;50.954;6.968;2023-03-23T00:53:59;99925.09;;;20.01;42.24
18784;BME280;9520;50.954;6.968;2023-03-23T00:54:21;99916.50;;;19.96;42.52
18784;BME280;9520;50.954;6.968;2023-03-23T00:54:43;99922.19;;;20.04;42.47
18784;BME280;9520;50.954;6.968;2023-03-23T00:55:05;99919.66;;;20.02;42.58
18784;BME280;9520;50.954;6.968;2023-03-23T00:55:27;99915.81;;;20.06;42.52
18784;BME280;9520;50.954;6.968;2023-03-23T00:55:48;99917.41;;;20.09;42.50
18784;BME280;9520;50.954;6.968;2023-03-23T00:56:09;99919.13;;;20.10;42.31
18784;BME280;9520;50.954;6.968;2023-03-23T00:56:30;99920.53;;;20.15;42.27
18784;BME280;9520;50.954;6.968;2023-03-23T00:56:51;99919.59;;;20.16;42.13
18784;BME280;9520;50.954;6.968;2023-03-23T00:57:13;99909.63;;;20.18;42.34
18784;BME280;9520;50.954;6.968;2023-03-23T00:57:33;99908.56;;;20.21;42.17
18784;BME280;9520;50.954;6.968;2023-03-23T00:57:54;99912.28;;;20.18;42.24
18784;BME280;9520;50.954;6.968;2023-03-23T00:58:15;99913.75;;;19.97;42.40
18784;BME280;9520;50.954;6.968;2023-03-23T00:58:37;99916.75;;;19.78;42.65
18784;BME280;9520;50.954;6.968;2023-03-23T00:58:58;99916.38;;;19.70;42.83
18784;BME280;9520;50.954;6.968;2023-03-23T00:59:20;99907.44;;;19.57;43.03
18784;BME280;9520;50.954;6.968;2023-03-23T00:59:41;99903.34;;;19.52;43.24
18784;BME280;9520;50.954;6.968;2023-03-23T01:00:04;99905.44;;;19.61;43.24
18784;BME280;9520;50.954;6.968;2023-03-23T01:00:29;99907.41;;;19.71;42.97
18784;BME280;9520;50.954;6.968;2023-03-23T01:00:51;99907.03;;;19.77;42.78
18784;BME280;9520;50.954;6.968;2023-03-23T01:01:12;99913.66;;;19.84;42.87
18784;BME280;9520;50.954;6.968;2023-03-23T01:01:35;99907.91;;;19.91;42.81
18784;BME280;9520;50.954;6.968;2023-03-23T01:01:56;99912.88;;;19.97;42.44
18784;BME280;9520;50.954;6.968;2023-03-23T01:02:18;99911.81;;;19.99;42.48
18784;BME280;9520;50.954;6.968;2023-03-23T01:02:39;99919.09;;;19.97;42.57
18784;BME280;9520;50.954;6.968;2023-03-23T01:03:05;99914.59;;;19.98;42.51
18784;BME280;9520;50.954;6.968;2023-03-23T01:03:26;99917.03;;;19.88;42.93
18784;BME280;9520;50.954;6.968;2023-03-23T01:03:48;99914.13;;;19.91;43.00
18784;BME280;9520;50.954;6.968;2023-03-23T01:04:10;99918.41;;;19.94;42.90
18784;BME280;9520;50.954;6.968;2023-03-23T01:04:33;99916.03;;;19.89;43.16
18784;BME280;9520;50.954;6.968;2023-03-23T01:04:57;99923.03;;;19.92;43.06
18784;BME280;9520;50.954;6.968;2023-03-23T01:05:18;99920.34;;;19.92;42.97
18784;BME280;9520;50.954;6.968;2023-03-23T01:05:39;99916.28;;;19.99;42.99
18784;BME280;9520;50.954;6.968;2023-03-23T01:06:07;99916.75;;;20.05;42.92
18784;BME280;9520;50.954;6.968;2023-03-23T01:06:30;99916.22;;;20.13;42.96
18784;BME280;9520;50.954;6.968;2023-03-23T01:06:51;99908.63;;;20.07;43.09
18784;BME280;9520;50.954;6.968;2023-03-23T01:07:12;99909.28;;;20.10;43.33
18784;BME280;9520;50.954;6.968;2023-03-23T01:07:33;99907.25;;;20.14;43.18
18784;BME280;9520;50.954;6.968;2023-03-23T01:07:55;99908.19;;;20.13;42.88
18784;BME280;9520;50.954;6.968;2023-03-23T01:08:16;99908.97;;;20.15;42.58
18784;BME280;9520;50.954;6.968;2023-03-23T01:08:39;99910.88;;;20.13;42.57
18784;BME280;9520;50.954;6.968;2023-03-23T01:09:06;99920.06;;;20.09;42.72
18784;BME280;9520;50.954;6.968;2023-03-23T01:09:28;99920.00;;;20.10;42.87
18784;BME280;9520;50.954;6.968;2023-03-23T01:09:49;99914.72;;;20.09;42.87
18784;BME280;9520;50.954;6.968;2023-03-23T01:10:11;99913.88;;;20.08;42.88
18784;BME280;9520;50.954;6.968;2023-03-23T01:10:33;99917.41;;;20.09;42.89
18784;BME280;9520;50.954;6.968;2023-03-23T01:11:03;99899.94;;;20.03;42.59
18784;BME280;9520;50.954;6.968;2023-03-23T01:11:24;99909.91;;;20.14;42.66
18784;BME280;9520;50.954;6.968;2023-03-23T01:11:45;99913.38;;;20.16;42.65
18784;BME280;9520;50.954;6.968;2023-03-23T01:12:07;99910.47;;;20.19;42.74
18784;BME280;9520;50.954;6.968;2023-03-23T01:12:28;99909.53;;;20.20;42.78
18784;BME280;9520;50.954;6.968;2023-03-23T01:12:50;99905.03;;;20.20;42.70
18784;BME280;9520;50.954;6.968;2023-03-23T01:13:11;99901.09;;;20.26;42.69
18784;BME280;9520;50.954;6.968;2023-03-23T01:13:32;99892.81;;;20.16;42.35
18784;BME280;9520;50.954;6.968;2023-03-23T01:13:53;99908.66;;;20.19;42.27
18784;BME280;9520;50.954;6.968;2023-03-23T01:14:57;99902.13;;;20.23;42.81
18784;BME280;9520;50.954;6.968;2023-03-23T01:15:20;99903.75;;;20.26;42.48
18784;BME280;9520;50.954;6.968;2023-03-23T01:15:42;99902.91;;;20.25;42.31
18784;BME280;9520;50.954;6.968;2023-03-23T01:16:03;99902.25;;;20.22;42.25
18784;BME280;9520;50.954;6.968;2023-03-23T01:16:25;99908.25;;;20.25;42.37
18784;BME280;9520;50.954;6.968;2023-03-23T01:16:45;99905.56;;;20.25;42.43
18784;BME280;9520;50.954;6.968;2023-03-23T01:17:07;99905.25;;;20.30;42.27
18784;BME280;9520;50.954;6.968;2023-03-23T01:17:29;99900.22;;;20.25;42.36
18784;BME280;9520;50.954;6.968;2023-03-23T01:17:49;99915.13;;;20.30;42.30
18784;BME280;9520;50.954;6.968;2023-03-23T01:18:10;99909.53;;;20.20;42.39
18784;BME280;9520;50.954;6.968;2023-03-23T01:18:32;99911.88;;;20.12;42.23
18784;BME280;9520;50.954;6.968;2023-03-23T01:18:53;99914.16;;;20.04;42.36
18784;BME280;9520;50.954;6.968;2023-03-23T01:19:13;99906.81;;;20.07;42.48
18784;BME280;9520;50.954;6.968;2023-03-23T01:19:37;99906.84;;;19.93;42.38
18784;BME280;9520;50.954;6.968;2023-03-23T01:20:00;99900.84;;;19.90;42.46
18784;BME280;9520;50.954;6.968;2023-03-23T01:20:21;99901.91;;;19.87;42.65
18784;BME280;9520;50.954;6.968;2023-03-23T01:20:43;99915.56;;;19.97;42.56
18784;BME280;9520;50.954;6.968;2023-03-23T01:21:06;99908.38;;;19.97;42.47
18784;BME280;9520;50.954;6.968;2023-03-23T01:21:26;99908.81;;;20.04;42.39
18784;BME280;9520;50.954;6.968;2023-03-23T01:21:48;99915.72;;;20.08;42.40
18784;BME280;9520;50.954;6.968;2023-03-23T01:22:09;99915.72;;;20.08;42.33
18784;BME280;9520;50.954;6.968;2023-03-23T01:22:29;99907.91;;;19.91;42.45
18784;BME280;9520;50.954;6.968;2023-03-23T01:22:50;99893.72;;;19.76;42.96
18784;BME280;9520;50.954;6.968;2023-03-23T01:23:13;99904.78;;;19.84;42.75
18784;BME280;9520;50.954;6.968;2023-03-23T01:23:34;99909.53;;;19.93;42.60
18784;BME280;9520;50.954;6.968;2023-03-23T01:23:55;99902.91;;;19.99;42.72
18784;BME280;9520;50.954;6.968;2023-03-23T01:24:16;99903.69;;;20.01;42.44
18784;BME280;9520;50.954;6.968;2023-03-23T01:24:39;99897.16;;;20.05;42.23
18784;BME280;9520;50.954;6.968;2023-03-23T01:25:01;99884.72;;;20.04;42.27
18784;BME280;9520;50.954;6.968;2023-03-23T01:25:22;99900.94;;;20.15;42.05
18784;BME280;9520;50.954;6.968;2023-03-23T01:25:43;99902.44;;;20.19;42.12
18784;BME280;9520;50.954;6.968;2023-03-23T01:26:06;99899.22;;;20.14;42.29
18784;BME280;9520;50.954;6.968;2023-03-23T01:26:29;99905.88;;;20.21;42.18
18784;BME280;9520;50.954;6.968;2023-03-23T01:26:51;99892.69;;;20.18;41.91
18784;BME280;9520;50.954;6.968;2023-03-23T01:27:12;99898.50;;;20.24;42.06
18784;BME280;9520;50.954;6.968;2023-03-23T01:27:32;99899.56;;;20.22;42.14
18784;BME280;9520;50.954;6.968;2023-03-23T01:27:53;99893.97;;;20.12;42.12
18784;BME280;9520;50.954;6.968;2023-03-23T01:28:15;99876.13;;;19.99;42.24
18784;BME280;9520;50.954;6.968;2023-03-23T01:28:36;99892.13;;;20.13;42.17
18784;BME280;9520;50.954;6.968;2023-03-23T01:28:57;99891.94;;;20.16;42.12
18784;BME280;9520;50.954;6.968;2023-03-23T01:29:20;99889.97;;;20.05;42.12
18784;BME280;9520;50.954;6.968;2023-03-23T01:29:41;99880.91;;;20.08;41.96
18784;BME280;9520;50.954;6.968;2023-03-23T01:30:04;99887.00;;;20.10;42.20
18784;BME280;9520;50.954;6.968;2023-03-23T01:30:26;99885.19;;;20.10;42.08
18784;BME280;9520;50.954;6.968;2023-03-23T01:30:48;99886.13;;;20.09;42.02
18784;BME280;9520;50.954;6.968;2023-03-23T01:31:10;99882.41;;;20.12;42.15
18784;BME280;9520;50.954;6.968;2023-03-23T01:31:33;99880.69;;;20.11;42.05
18784;BME280;9520;50.954;6.968;2023-03-23T01:31:55;99872.88;;;20.08;42.27
18784;BME280;9520;50.954;6.968;2023-03-23T01:32:16;99886.13;;;20.09;42.46
18784;BME280;9520;50.954;6.968;2023-03-23T01:32:37;99893.66;;;20.17;42.33
18784;BME280;9520;50.954;6.968;2023-03-23T01:32:58;99887.63;;;20.13;42.14
18784;BME280;9520;50.954;6.968;2023-03-23T01:33:19;99892.34;;;20.10;42.10
18784;BME280;9520;50.954;6.968;2023-03-23T01:33:40;99894.47;;;20.05;42.12
18784;BME280;9520;50.954;6.968;2023-03-23T01:34:05;99888.38;;;20.03;42.21
18784;BME280;9520;50.954;6.968;2023-03-23T01:34:26;99888.63;;;19.86;42.43
18784;BME280;9520;50.954;6.968;2023-03-23T01:34:48;99901.78;;;19.89;42.61
18784;BME280;9520;50.954;6.968;2023-03-23T01:35:08;99895.09;;;19.96;42.44
18784;BME280;9520;50.954;6.968;2023-03-23T01:35:30;99890.38;;;19.99;42.49
18784;BME280;9520;50.954;6.968;2023-03-23T01:35:51;99890.78;;;19.93;42.44
18784;BME280;9520;50.954;6.968;2023-03-23T01:36:14;99894.88;;;19.99;42.63
18784;BME280;9520;50.954;6.968;2023-03-23T01:36:36;99897.56;;;19.99;42.69
18784;BME280;9520;50.954;6.968;2023-03-23T01:36:59;99898.94;;;19.92;42.79
18784;BME280;9520;50.954;6.968;2023-03-23T01:37:20;99898.16;;;19.90;42.58
18784;BME280;9520;50.954;6.968;2023-03-23T01:37:46;99900.09;;;19.88;42.91
18784;BME280;9520;50.954;6.968;2023-03-23T01:38:08;99902.34;;;19.94;42.48
18784;BME280;9520;50.954;6.968;2023-03-23T01:38:29;99902.16;;;19.97;42.51
18784;BME280;9520;50.954;6.968;2023-03-23T01:38:52;99899.38;;;19.98;42.52
18784;BME280;9520;50.954;6.968;2023-03-23T01:39:14;99895.66;;;20.01;42.47
18784;BME280;9520;50.954;6.968;2023-03-23T01:39:35;99902.41;;;20.06;42.42
18784;BME280;9520;50.954;6.968;2023-03-23T01:39:57;99893.53;;;20.06;42.57
18784;BME280;9520;50.954;6.968;2023-03-23T01:40:18;99902.91;;;19.99;42.66
18784;BME280;9520;50.954;6.968;2023-03-23T01:40:39;99897.78;;;19.96;42.67
18784;BME280;9520;50.954;6.968;2023-03-23T01:41:01;99893.59;;;19.92;42.59
18784;BME280;9520;50.954;6.968;2023-03-23T01:41:22;99900.34;;;19.97;42.82
18784;BME280;9520;50.954;6.968;2023-03-23T01:41:44;99880.94;;;19.94;42.80
18784;BME280;9520;50.954;6.968;2023-03-23T01:42:08;99895.44;;;20.04;42.61
18784;BME280;9520;50.954;6.968;2023-03-23T01:42:31;99885.88;;;20.00;42.70
18784;BME280;9520;50.954;6.968;2023-03-23T01:42:53;99911.41;;;20.05;42.93
18784;BME280;9520;50.954;6.968;2023-03-23T01:43:15;99904.28;;;19.92;43.19
18784;BME280;9520;50.954;6.968;2023-03-23T01:44:00;99905.22;;;19.78;43.42
18784;BME280;9520;50.954;6.968;2023-03-23T01:45:32;99905.53;;;19.86;43.80
18784;BME280;9520;50.954;6.968;2023-03-23T01:45:55;99895.72;;;19.87;43.75
18784;BME280;9520;50.954;6.968;2023-03-23T01:46:16;99906.66;;;19.96;43.78
18784;BME280;9520;50.954;6.968;2023-03-23T01:46:37;99893.38;;;19.95;43.96
18784;BME280;9520;50.954;6.968;2023-03-23T01:46:58;99903.22;;;19.94;43.84
18784;BME280;9520;50.954;6.968;2023-03-23T01:47:21;99896.13;;;19.93;43.78
18784;BME280;9520;50.954;6.968;2023-03-23T01:47:45;99893.88;;;19.87;44.11
18784;BME280;9520;50.954;6.968;2023-03-23T01:48:12;99900.75;;;19.91;43.68
18784;BME280;9520;50.954;6.968;2023-03-23T01:48:36;99896.69;;;19.98;43.68
18784;BME280;9520;50.954;6.968;2023-03-23T01:49:02;99897.00;;;19.94;43.75
18784;BME280;9520;50.954;6.968;2023-03-23T01:49:29;99894.94;;;19.84;44.25
18784;BME280;9520;50.954;6.968;2023-03-23T01:49:53;99896.34;;;19.90;44.55
18784;BME280;9520;50.954;6.968;2023-03-23T01:50:14;99894.44;;;19.92;44.17
18784;BME280;9520;50.954;6.968;2023-03-23T01:50:38;99886.09;;;19.97;43.80
18784;BME280;9520;50.954;6.968;2023-03-23T01:51:05;99875.81;;;19.91;43.91
18784;BME280;9520;50.954;6.968;2023-03-23T01:51:28;99887.41;;;20.04;44.18
18784;BME280;9520;50.954;6.968;2023-03-23T01:51:51;99887.94;;;20.09;44.06
18784;BME280;9520;50.954;6.968;2023-03-23T01:52:19;99890.31;;;20.13;43.82
18784;BME280;9520;50.954;6.968;2023-03-23T01:52:44;99883.28;;;20.12;43.93
18784;BME280;9520;50.954;6.968;2023-03-23T01:53:06;99888.31;;;20.17;44.08
18784;BME280;9520;50.954;6.968;2023-03-23T01:53:39;99880.16;;;20.18;44.12
18784;BME280;9520;50.954;6.968;2023-03-23T01:54:04;99883.69;;;20.19;44.28
18784;BME280;9520;50.954;6.968;2023-03-23T01:54:27;99881.88;;;20.19;44.18
18784;BME280;9520;50.954;6.968;2023-03-23T01:54:49;99890.00;;;20.18;44.29
18784;BME280;9520;50.954;6.968;2023-03-23T01:55:12;99884.47;;;20.21;44.00
18784;BME280;9520;50.954;6.968;2023-03-23T01:55:33;99885.31;;;20.21;44.25
18784;BME280;9520;50.954;6.968;2023-03-23T01:55:55;99887.03;;;20.22;44.22
18784;BME280;9520;50.954;6.968;2023-03-23T01:56:20;99884.47;;;20.21;44.28
18784;BME280;9520;50.954;6.968;2023-03-23T01:56:48;99893.44;;;20.20;44.42
18784;BME280;9520;50.954;6.968;2023-03-23T01:57:13;99889.81;;;20.21;43.97
18784;BME280;9520;50.954;6.968;2023-03-23T01:57:35;99880.94;;;20.20;43.97
18784;BME280;9520;50.954;6.968;2023-03-23T01:57:57;99888.75;;;20.23;44.07
18784;BME280;9520;50.954;6.968;2023-03-23T01:58:21;99891.63;;;20.20;44.28
18784;BME280;9520;50.954;6.968;2023-03-23T01:58:46;99890.56;;;20.23;43.96
18784;BME280;9520;50.954;6.968;2023-03-23T01:59:11;99890.47;;;20.24;43.95
18784;BME280;9520;50.954;6.968;2023-03-23T01:59:34;99885.31;;;20.21;43.97
18784;BME280;9520;50.954;6.968;2023-03-23T02:00:14;99894.72;;;20.14;44.24
18784;BME280;9520;50.954;6.968;2023-03-23T02:00:38;99893.00;;;20.13;44.41
18784;BME280;9520;50.954;6.968;2023-03-23T02:01:05;99882.03;;;20.04;44.44
18784;BME280;9520;50.954;6.968;2023-03-23T02:01:27;99852.88;;;19.87;44.16
18784;BME280;9520;50.954;6.968;2023-03-23T02:01:48;99879.59;;;20.01;44.36